sensor_id;sensor_type;location;lat;lon;timestamp;pressure;altitude;pressure_sealevel;temperature;humidity
20156;BME280;10238;49.556;10.956;2023-01-30T00:00:42;98858.44;;;-5.34;100.00
20156;BME280;10238;49.556;10.956;2023-01-30T00:03:31;98860.31;;;-5.39;100.00
20156;BME280;10238;49.556;10.956;2023-01-30T00:06:20;98846.56;;;-5.41;100.00
20156;BME280;10238;49.556;10.956;2023-01-30T00:09:13;98837.72;;;-5.34;100.00
20156;BME280;10238;49.556;10.956;2023-01-30T00:12:00;98825.47;;;-5.29;100.00
20156;BME280;10238;49.556;10.956;2023-01-30T00:14:48;98827.19;;;-5.28;100.00
20156;BME280;10238;49.556;10.956;2023-01-30T00:17:36;98823.78;;;-5.30;100.00
20156;BME280;10238;49.556;10.956;2023-01-30T00:20:25;98816.63;;;-5.22;100.00
20156;BME280;10238;49.556;10.956;2023-01-30T00:23:13;98817.75;;;-5.31;100.00
20156;BME280;10238;49.556;10.956;2023-01-30T00:26:00;98831.91;;;-5.42;100.00
20156;BME280;10238;49.556;10.956;2023-01-30T00:28:48;98836.53;;;-5.52;100.00
20156;BME280;10238;49.556;10.956;2023-01-30T00:31:36;98837.34;;;-5.50;100.00
20156;BME280;10238;49.556;10.956;2023-01-30T00:34:23;98845.25;;;-5.54;100.00
20156;BME280;10238;49.556;10.956;2023-01-30T00:37:12;98846.97;;;-5.55;100.00
20156;BME280;10238;49.556;10.956;2023-01-30T00:39:59;98852.09;;;-5.53;100.00
20156;BME280;10238;49.556;10.956;2023-01-30T00:42:47;98862.38;;;-5.50;100.00
20156;BME280;10238;49.556;10.956;2023-01-30T00:45:54;98871.69;;;-5.45;100.00
20156;BME280;10238;49.556;10.956;2023-01-30T00:48:59;98872.22;;;-5.32;100.00
20156;BME280;10238;49.556;10.956;2023-01-30T00:51:47;98883.56;;;-5.38;100.00
20156;BME280;10238;49.556;10.956;2023-01-30T00:54:36;98879.00;;;-5.28;100.00
20156;BME280;10238;49.556;10.956;2023-01-30T00:57:23;98884.78;;;-5.20;100.00
20156;BME280;10238;49.556;10.956;2023-01-30T01:00:12;98873.28;;;-5.12;100.00
20156;BME280;10238;49.556;10.956;2023-01-30T01:03:02;98861.84;;;-5.05;100.00
20156;BME280;10238;49.556;10.956;2023-01-30T01:05:50;98867.31;;;-4.86;100.00
20156;BME280;10238;49.556;10.956;2023-01-30T01:08:37;98863.44;;;-4.73;100.00
20156;BME280;10238;49.556;10.956;2023-01-30T01:11:26;98864.81;;;-4.63;100.00
20156;BME280;10238;49.556;10.956;2023-01-30T01:14:14;98858.09;;;-4.43;100.00
20156;BME280;10238;49.556;10.956;2023-01-30T01:17:01;98842.31;;;-4.36;100.00
20156;BME280;10238;49.556;10.956;2023-01-30T01:19:48;98834.75;;;-4.18;100.00
20156;BME280;10238;49.556;10.956;2023-01-30T01:22:36;98833.19;;;-3.99;100.00
20156;BME280;10238;49.556;10.956;2023-01-30T01:25:24;98833.03;;;-3.94;100.00
20156;BME280;10238;49.556;10.956;2023-01-30T01:28:13;98823.81;;;-3.78;100.00
20156;BME280;10238;49.556;10.956;2023-01-30T01:31:08;98822.06;;;-3.78;100.00
20156;BME280;10238;49.556;10.956;2023-01-30T01:33:57;98815.84;;;-3.51;100.00
20156;BME280;10238;49.556;10.956;2023-01-30T01:36:47;98812.19;;;-3.45;100.00
20156;BME280;10238;49.556;10.956;2023-01-30T01:39:40;98798.03;;;-2.74;100.00
20156;BME280;10238;49.556;10.956;2023-01-30T01:42:44;98782.56;;;-2.98;100.00
20156;BME280;10238;49.556;10.956;2023-01-30T01:45:34;98771.59;;;-2.85;100.00
20156;BME280;10238;49.556;10.956;2023-01-30T01:48:28;98773.34;;;-2.44;100.00
20156;BME280;10238;49.556;10.956;2023-01-30T01:51:22;98774.59;;;-2.52;100.00
20156;BME280;10238;49.556;10.956;2023-01-30T01:54:18;98779.19;;;-2.59;100.00
20156;BME280;10238;49.556;10.956;2023-01-30T01:57:15;98765.66;;;-2.27;100.00
20156;BME280;10238;49.556;10.956;2023-01-30T02:00:09;98749.13;;;-2.26;100.00
20156;BME280;10238;49.556;10.956;2023-01-30T02:03:04;98749.50;;;-2.14;100.00
20156;BME280;10238;49.556;10.956;2023-01-30T02:05:57;98752.25;;;-2.38;100.00
20156;BME280;10238;49.556;10.956;2023-01-30T02:08:49;98734.41;;;-2.27;100.00
20156;BME280;10238;49.556;10.956;2023-01-30T02:11:44;98718.00;;;-2.08;100.00
20156;BME280;10238;49.556;10.956;2023-01-30T02:14:35;98713.78;;;-1.92;100.00
20156;BME280;10238;49.556;10.956;2023-01-30T02:17:24;98710.25;;;-1.91;100.00
20156;BME280;10238;49.556;10.956;2023-01-30T02:20:25;98693.72;;;-1.72;100.00
20156;BME280;10238;49.556;10.956;2023-01-30T02:24:01;98690.41;;;-1.75;100.00
20156;BME280;10238;49.556;10.956;2023-01-30T02:27:26;98670.47;;;-1.76;100.00
20156;BME280;10238;49.556;10.956;2023-01-30T02:34:14;98675.13;;;-1.64;100.00
20156;BME280;10238;49.556;10.956;2023-01-30T02:37:28;98686.91;;;-1.74;100.00
20156;BME280;10238;49.556;10.956;2023-01-30T02:40:41;98688.09;;;-1.81;100.00
20156;BME280;10238;49.556;10.956;2023-01-30T02:43:44;98682.66;;;-1.77;100.00
20156;BME280;10238;49.556;10.956;2023-01-30T02:46:42;98683.50;;;-1.76;100.00
20156;BME280;10238;49.556;10.956;2023-01-30T02:49:39;98670.56;;;-1.78;100.00
20156;BME280;10238;49.556;10.956;2023-01-30T02:52:29;98676.81;;;-1.63;100.00
20156;BME280;10238;49.556;10.956;2023-01-30T02:55:20;98671.81;;;-1.68;100.00
20156;BME280;10238;49.556;10.956;2023-01-30T02:58:10;98657.13;;;-1.52;100.00
20156;BME280;10238;49.556;10.956;2023-01-30T03:01:41;98646.50;;;-1.47;100.00
20156;BME280;10238;49.556;10.956;2023-01-30T03:04:55;98639.66;;;-1.50;100.00
20156;BME280;10238;49.556;10.956;2023-01-30T03:07:55;98635.53;;;-1.37;100.00
20156;BME280;10238;49.556;10.956;2023-01-30T03:10:53;98639.75;;;-1.51;100.00
20156;BME280;10238;49.556;10.956;2023-01-30T03:13:54;98624.97;;;-1.34;100.00
20156;BME280;10238;49.556;10.956;2023-01-30T03:16:51;98605.19;;;-1.21;100.00
20156;BME280;10238;49.556;10.956;2023-01-30T03:19:47;98602.81;;;-1.25;100.00
20156;BME280;10238;49.556;10.956;2023-01-30T03:22:37;98599.91;;;-1.19;100.00
20156;BME280;10238;49.556;10.956;2023-01-30T03:25:26;98587.50;;;-1.14;100.00
20156;BME280;10238;49.556;10.956;2023-01-30T03:28:17;98584.47;;;-1.24;100.00
20156;BME280;10238;49.556;10.956;2023-01-30T03:31:06;98589.31;;;-1.16;100.00
20156;BME280;10238;49.556;10.956;2023-01-30T03:33:56;98596.53;;;-1.04;100.00
20156;BME280;10238;49.556;10.956;2023-01-30T03:36:45;98596.69;;;-1.07;100.00
20156;BME280;10238;49.556;10.956;2023-01-30T03:39:33;98593.16;;;-1.06;100.00
20156;BME280;10238;49.556;10.956;2023-01-30T03:42:24;98593.53;;;-0.97;100.00
20156;BME280;10238;49.556;10.956;2023-01-30T03:45:14;98592.91;;;-1.02;100.00
20156;BME280;10238;49.556;10.956;2023-01-30T03:48:03;98580.34;;;-1.11;100.00
20156;BME280;10238;49.556;10.956;2023-01-30T03:50:52;98575.50;;;-1.01;100.00
20156;BME280;10238;49.556;10.956;2023-01-30T03:53:39;98576.56;;;-1.05;100.00
20156;BME280;10238;49.556;10.956;2023-01-30T03:56:30;98575.63;;;-0.87;100.00
20156;BME280;10238;49.556;10.956;2023-01-30T03:59:20;98580.53;;;-0.81;100.00
20156;BME280;10238;49.556;10.956;2023-01-30T04:02:14;98581.94;;;-0.91;100.00
20156;BME280;10238;49.556;10.956;2023-01-30T04:05:09;98583.31;;;-0.84;100.00
20156;BME280;10238;49.556;10.956;2023-01-30T04:07:59;98577.78;;;-0.78;100.00
20156;BME280;10238;49.556;10.956;2023-01-30T04:10:48;98577.69;;;-0.77;100.00
20156;BME280;10238;49.556;10.956;2023-01-30T04:13:38;98575.78;;;-0.73;100.00
20156;BME280;10238;49.556;10.956;2023-01-30T04:16:28;98581.47;;;-0.82;100.00
20156;BME280;10238;49.556;10.956;2023-01-30T04:19:15;98591.09;;;-0.67;100.00
20156;BME280;10238;49.556;10.956;2023-01-30T04:22:03;98587.44;;;-0.80;100.00
20156;BME280;10238;49.556;10.956;2023-01-30T04:24:52;98574.22;;;-0.77;100.00
20156;BME280;10238;49.556;10.956;2023-01-30T04:27:44;98580.31;;;-0.77;100.00
20156;BME280;10238;49.556;10.956;2023-01-30T04:30:32;98574.06;;;-0.74;100.00
20156;BME280;10238;49.556;10.956;2023-01-30T04:33:20;98575.59;;;-0.70;100.00
20156;BME280;10238;49.556;10.956;2023-01-30T04:36:09;98578.13;;;-0.69;100.00
20156;BME280;10238;49.556;10.956;2023-01-30T04:38:57;98563.94;;;-0.63;100.00
20156;BME280;10238;49.556;10.956;2023-01-30T04:41:48;98565.69;;;-0.64;100.00
20156;BME280;10238;49.556;10.956;2023-01-30T04:44:36;98564.44;;;-0.57;100.00
20156;BME280;10238;49.556;10.956;2023-01-30T04:47:24;98565.28;;;-0.56;100.00
20156;BME280;10238;49.556;10.956;2023-01-30T04:50:11;98565.44;;;-0.59;100.00
20156;BME280;10238;49.556;10.956;2023-01-30T04:53:02;98560.00;;;-0.39;100.00
20156;BME280;10238;49.556;10.956;2023-01-30T04:55:52;98540.28;;;-0.29;100.00
20156;BME280;10238;49.556;10.956;2023-01-30T04:58:42;98533.22;;;-0.43;100.00
20156;BME280;10238;49.556;10.956;2023-01-30T05:01:40;98529.34;;;-0.36;100.00
20156;BME280;10238;49.556;10.956;2023-01-30T05:04:27;98525.06;;;-0.37;100.00
20156;BME280;10238;49.556;10.956;2023-01-30T05:07:17;98534.66;;;-0.37;100.00
20156;BME280;10238;49.556;10.956;2023-01-30T05:10:06;98540.22;;;-0.43;100.00
20156;BME280;10238;49.556;10.956;2023-01-30T05:12:54;98539.97;;;-0.39;100.00
20156;BME280;10238;49.556;10.956;2023-01-30T05:15:44;98531.34;;;-0.41;100.00
20156;BME280;10238;49.556;10.956;2023-01-30T05:18:31;98524.22;;;-0.37;100.00
20156;BME280;10238;49.556;10.956;2023-01-30T05:21:23;98508.38;;;-0.34;100.00
20156;BME280;10238;49.556;10.956;2023-01-30T05:24:13;98505.25;;;-0.25;100.00
20156;BME280;10238;49.556;10.956;2023-01-30T05:27:00;98517.38;;;-0.24;100.00
20156;BME280;10238;49.556;10.956;2023-01-30T05:29:48;98515.19;;;-0.32;100.00
20156;BME280;10238;49.556;10.956;2023-01-30T05:32:37;98512.50;;;-0.30;100.00
20156;BME280;10238;49.556;10.956;2023-01-30T05:35:25;98508.38;;;-0.34;100.00
20156;BME280;10238;49.556;10.956;2023-01-30T05:38:13;98515.28;;;-0.33;100.00
20156;BME280;10238;49.556;10.956;2023-01-30T05:41:02;98515.34;;;-0.35;100.00
20156;BME280;10238;49.556;10.956;2023-01-30T05:43:50;98513.44;;;-0.31;100.00
20156;BME280;10238;49.556;10.956;2023-01-30T05:46:38;98511.31;;;-0.25;100.00
20156;BME280;10238;49.556;10.956;2023-01-30T05:49:28;98497.50;;;-0.27;100.00
20156;BME280;10238;49.556;10.956;2023-01-30T05:52:15;98501.81;;;-0.26;100.00
20156;BME280;10238;49.556;10.956;2023-01-30T05:55:03;98495.81;;;-0.28;100.00
20156;BME280;10238;49.556;10.956;2023-01-30T05:57:51;98491.28;;;-0.24;100.00
20156;BME280;10238;49.556;10.956;2023-01-30T06:00:39;98483.69;;;-0.29;100.00
20156;BME280;10238;49.556;10.956;2023-01-30T06:03:26;98488.06;;;-0.29;100.00
20156;BME280;10238;49.556;10.956;2023-01-30T06:06:15;98494.81;;;-0.25;100.00
20156;BME280;10238;49.556;10.956;2023-01-30T06:09:03;98506.25;;;-0.28;100.00
20156;BME280;10238;49.556;10.956;2023-01-30T06:11:51;98502.66;;;-0.25;100.00
20156;BME280;10238;49.556;10.956;2023-01-30T06:14:40;98512.34;;;-0.27;100.00
20156;BME280;10238;49.556;10.956;2023-01-30T06:17:27;98503.47;;;-0.25;100.00
20156;BME280;10238;49.556;10.956;2023-01-30T06:20:15;98506.78;;;-0.21;100.00
20156;BME280;10238;49.556;10.956;2023-01-30T06:23:07;98497.19;;;-0.21;100.00
20156;BME280;10238;49.556;10.956;2023-01-30T06:26:01;98496.00;;;-0.15;100.00
20156;BME280;10238;49.556;10.956;2023-01-30T06:28:53;98490.94;;;-0.18;100.00
20156;BME280;10238;49.556;10.956;2023-01-30T06:31:40;98491.75;;;-0.18;100.00
20156;BME280;10238;49.556;10.956;2023-01-30T06:34:28;98498.78;;;-0.18;100.00
20156;BME280;10238;49.556;10.956;2023-01-30T06:37:16;98497.50;;;-0.11;100.00
20156;BME280;10238;49.556;10.956;2023-01-30T06:40:06;98502.88;;;-0.14;100.00
20156;BME280;10238;49.556;10.956;2023-01-30T06:42:54;98516.38;;;-0.06;100.00
20156;BME280;10238;49.556;10.956;2023-01-30T06:45:42;98510.47;;;-0.10;100.00
20156;BME280;10238;49.556;10.956;2023-01-30T06:48:30;98504.22;;;-0.07;100.00
20156;BME280;10238;49.556;10.956;2023-01-30T06:51:18;98500.78;;;-0.08;100.00
20156;BME280;10238;49.556;10.956;2023-01-30T06:54:07;98491.75;;;-0.02;100.00
20156;BME280;10238;49.556;10.956;2023-01-30T06:56:59;98497.84;;;-0.02;100.00
20156;BME280;10238;49.556;10.956;2023-01-30T06:59:47;98489.91;;;0.00;100.00
20156;BME280;10238;49.556;10.956;2023-01-30T07:02:34;98492.41;;;0.01;100.00
20156;BME280;10238;49.556;10.956;2023-01-30T07:05:22;98489.72;;;0.03;100.00
20156;BME280;10238;49.556;10.956;2023-01-30T07:08:11;98489.91;;;0.00;100.00
20156;BME280;10238;49.556;10.956;2023-01-30T07:10:58;98474.72;;;0.07;100.00
20156;BME280;10238;49.556;10.956;2023-01-30T07:13:47;98476.38;;;0.08;100.00
20156;BME280;10238;49.556;10.956;2023-01-30T07:16:35;98467.56;;;0.10;100.00
20156;BME280;10238;49.556;10.956;2023-01-30T07:19:22;98472.00;;;0.08;100.00
20156;BME280;10238;49.556;10.956;2023-01-30T07:22:10;98459.88;;;0.07;100.00
20156;BME280;10238;49.556;10.956;2023-01-30T07:24:58;98461.56;;;0.08;100.00
20156;BME280;10238;49.556;10.956;2023-01-30T07:27:50;98462.25;;;0.12;100.00
20156;BME280;10238;49.556;10.956;2023-01-30T07:30:39;98468.38;;;0.11;100.00
20156;BME280;10238;49.556;10.956;2023-01-30T07:33:30;98439.81;;;0.08;100.00
20156;BME280;10238;49.556;10.956;2023-01-30T07:36:19;98428.34;;;0.10;100.00
20156;BME280;10238;49.556;10.956;2023-01-30T07:39:06;98431.72;;;0.12;100.00
20156;BME280;10238;49.556;10.956;2023-01-30T07:41:59;98424.63;;;0.14;100.00
20156;BME280;10238;49.556;10.956;2023-01-30T07:44:47;98428.38;;;0.24;100.00
20156;BME280;10238;49.556;10.956;2023-01-30T07:47:36;98425.94;;;0.21;100.00
20156;BME280;10238;49.556;10.956;2023-01-30T07:50:24;98417.16;;;0.22;100.00
20156;BME280;10238;49.556;10.956;2023-01-30T07:53:15;98401.81;;;0.32;100.00
20156;BME280;10238;49.556;10.956;2023-01-30T07:56:06;98398.91;;;0.36;100.00
20156;BME280;10238;49.556;10.956;2023-01-30T07:58:55;98400.59;;;0.37;100.00
20156;BME280;10238;49.556;10.956;2023-01-30T08:01:43;98399.66;;;0.38;100.00
20156;BME280;10238;49.556;10.956;2023-01-30T08:04:32;98409.19;;;0.39;100.00
20156;BME280;10238;49.556;10.956;2023-01-30T08:07:21;98408.94;;;0.44;100.00
20156;BME280;10238;49.556;10.956;2023-01-30T08:10:10;98381.00;;;0.44;100.00
20156;BME280;10238;49.556;10.956;2023-01-30T08:12:58;98396.13;;;0.53;100.00
20156;BME280;10238;49.556;10.956;2023-01-30T08:15:45;98398.75;;;0.53;100.00
20156;BME280;10238;49.556;10.956;2023-01-30T08:18:35;98401.34;;;0.53;100.00
20156;BME280;10238;49.556;10.956;2023-01-30T08:21:25;98386.34;;;0.57;100.00
20156;BME280;10238;49.556;10.956;2023-01-30T08:24:13;98385.31;;;0.59;100.00
20156;BME280;10238;49.556;10.956;2023-01-30T08:27:01;98386.16;;;0.60;100.00
20156;BME280;10238;49.556;10.956;2023-01-30T08:29:49;98382.78;;;0.58;100.00
20156;BME280;10238;49.556;10.956;2023-01-30T08:32:37;98392.38;;;0.57;100.00
20156;BME280;10238;49.556;10.956;2023-01-30T08:35:30;98385.88;;;0.64;100.00
20156;BME280;10238;49.556;10.956;2023-01-30T08:38:21;98388.50;;;0.64;100.00
20156;BME280;10238;49.556;10.956;2023-01-30T08:41:09;98374.66;;;0.62;100.00
20156;BME280;10238;49.556;10.956;2023-01-30T08:44:03;98386.78;;;0.63;100.00
20156;BME280;10238;49.556;10.956;2023-01-30T08:46:56;98390.94;;;0.67;100.00
20156;BME280;10238;49.556;10.956;2023-01-30T08:49:44;98374.47;;;0.65;100.00
20156;BME280;10238;49.556;10.956;2023-01-30T08:52:32;98394.44;;;0.66;100.00
20156;BME280;10238;49.556;10.956;2023-01-30T08:55:21;98377.84;;;0.67;100.00
20156;BME280;10238;49.556;10.956;2023-01-30T08:58:08;98391.66;;;0.69;100.00
20156;BME280;10238;49.556;10.956;2023-01-30T09:00:57;98395.22;;;0.68;100.00
20156;BME280;10238;49.556;10.956;2023-01-30T09:03:50;98396.06;;;0.69;100.00
20156;BME280;10238;49.556;10.956;2023-01-30T09:06:38;98397.84;;;0.68;100.00
20156;BME280;10238;49.556;10.956;2023-01-30T09:09:28;98393.53;;;0.67;100.00
20156;BME280;10238;49.556;10.956;2023-01-30T09:12:19;98392.59;;;0.68;100.00
20156;BME280;10238;49.556;10.956;2023-01-30T09:15:09;98393.53;;;0.67;100.00
20156;BME280;10238;49.556;10.956;2023-01-30T09:17:57;98374.47;;;0.65;100.00
20156;BME280;10238;49.556;10.956;2023-01-30T09:20:45;98379.53;;;0.68;100.00
20156;BME280;10238;49.556;10.956;2023-01-30T09:23:33;98362.88;;;0.69;100.00
20156;BME280;10238;49.556;10.956;2023-01-30T09:26:20;98377.66;;;0.70;100.00
20156;BME280;10238;49.556;10.956;2023-01-30T09:29:10;98378.38;;;0.72;100.00
20156;BME280;10238;49.556;10.956;2023-01-30T09:31:58;98382.69;;;0.73;100.00
20156;BME280;10238;49.556;10.956;2023-01-30T09:34:48;98359.03;;;0.75;100.00
20156;BME280;10238;49.556;10.956;2023-01-30T09:37:35;98362.41;;;0.77;100.00
20156;BME280;10238;49.556;10.956;2023-01-30T09:40:27;98357.84;;;0.80;100.00
20156;BME280;10238;49.556;10.956;2023-01-30T09:43:37;98369.97;;;0.81;100.00
20156;BME280;10238;49.556;10.956;2023-01-30T09:46:37;98380.06;;;0.87;100.00
20156;BME280;10238;49.556;10.956;2023-01-30T09:49:41;98371.28;;;0.88;100.00
20156;BME280;10238;49.556;10.956;2023-01-30T09:52:45;98361.56;;;0.90;100.00
20156;BME280;10238;49.556;10.956;2023-01-30T09:55:39;98354.81;;;1.00;100.00
20156;BME280;10238;49.556;10.956;2023-01-30T09:58:43;98346.69;;;1.05;100.00
20156;BME280;10238;49.556;10.956;2023-01-30T10:01:43;98347.53;;;1.05;100.00
20156;BME280;10238;49.556;10.956;2023-01-30T10:04:44;98349.03;;;1.09;100.00
20156;BME280;10238;49.556;10.956;2023-01-30T10:08:01;98350.69;;;1.10;100.00
20156;BME280;10238;49.556;10.956;2023-01-30T10:11:00;98338.97;;;1.16;100.00
20156;BME280;10238;49.556;10.956;2023-01-30T10:14:19;98335.06;;;1.23;100.00
20156;BME280;10238;49.556;10.956;2023-01-30T10:17:30;98340.94;;;1.26;100.00
20156;BME280;10238;49.556;10.956;2023-01-30T10:20:38;98342.41;;;1.30;100.00
20156;BME280;10238;49.556;10.956;2023-01-30T10:24:02;98337.63;;;1.37;100.00
20156;BME280;10238;49.556;10.956;2023-01-30T10:26:55;98334.91;;;1.38;100.00
20156;BME280;10238;49.556;10.956;2023-01-30T10:29:48;98331.25;;;1.41;100.00
20156;BME280;10238;49.556;10.956;2023-01-30T10:32:45;98337.25;;;1.43;100.00
20156;BME280;10238;49.556;10.956;2023-01-30T10:35:37;98328.25;;;1.47;100.00
20156;BME280;10238;49.556;10.956;2023-01-30T10:38:33;98342.91;;;1.49;100.00
20156;BME280;10238;49.556;10.956;2023-01-30T10:41:29;98330.56;;;1.51;100.00
20156;BME280;10238;49.556;10.956;2023-01-30T10:44:22;98333.84;;;1.55;100.00
20156;BME280;10238;49.556;10.956;2023-01-30T10:47:35;98331.94;;;1.57;100.00
20156;BME280;10238;49.556;10.956;2023-01-30T10:50:47;98333.63;;;1.58;100.00
20156;BME280;10238;49.556;10.956;2023-01-30T10:53:44;98333.50;;;1.59;100.00
20156;BME280;10238;49.556;10.956;2023-01-30T10:56:43;98331.00;;;1.58;100.00
20156;BME280;10238;49.556;10.956;2023-01-30T10:59:49;98333.50;;;1.59;100.00
20156;BME280;10238;49.556;10.956;2023-01-30T11:02:59;98330.59;;;1.64;100.00
20156;BME280;10238;49.556;10.956;2023-01-30T11:05:53;98324.44;;;1.65;100.00
20156;BME280;10238;49.556;10.956;2023-01-30T11:08:45;98322.44;;;1.68;100.00
20156;BME280;10238;49.556;10.956;2023-01-30T11:11:41;98314.56;;;1.68;100.00
20156;BME280;10238;49.556;10.956;2023-01-30T11:14:55;98313.75;;;1.68;100.00
20156;BME280;10238;49.556;10.956;2023-01-30T11:17:45;98320.56;;;1.70;100.00
20156;BME280;10238;49.556;10.956;2023-01-30T11:20:39;98313.66;;;1.69;100.00
20156;BME280;10238;49.556;10.956;2023-01-30T11:23:35;98311.75;;;1.71;100.00
20156;BME280;10238;49.556;10.956;2023-01-30T11:26:31;98309.03;;;1.73;100.00
20156;BME280;10238;49.556;10.956;2023-01-30T11:29:33;98316.78;;;1.74;100.00
20156;BME280;10238;49.556;10.956;2023-01-30T11:32:25;98314.91;;;1.76;100.00
20156;BME280;10238;49.556;10.956;2023-01-30T11:35:24;98314.91;;;1.76;100.00
20156;BME280;10238;49.556;10.956;2023-01-30T11:38:21;98305.38;;;1.75;100.00
20156;BME280;10238;49.556;10.956;2023-01-30T11:41:20;98311.34;;;1.77;100.00
20156;BME280;10238;49.556;10.956;2023-01-30T11:44:09;98299.91;;;1.78;100.00
20156;BME280;10238;49.556;10.956;2023-01-30T11:46:59;98303.38;;;1.79;100.00
20156;BME280;10238;49.556;10.956;2023-01-30T11:49:49;98291.25;;;1.78;100.00
20156;BME280;10238;49.556;10.956;2023-01-30T11:53:03;98305.28;;;1.77;100.00
20156;BME280;10238;49.556;10.956;2023-01-30T11:55:57;98302.53;;;1.78;100.00
20156;BME280;10238;49.556;10.956;2023-01-30T11:58:57;98304.25;;;1.79;100.00
20156;BME280;10238;49.556;10.956;2023-01-30T12:01:47;98308.72;;;1.77;100.00
20156;BME280;10238;49.556;10.956;2023-01-30T12:04:43;98309.69;;;1.76;100.00
20156;BME280;10238;49.556;10.956;2023-01-30T12:07:35;98313.88;;;1.79;100.00
20156;BME280;10238;49.556;10.956;2023-01-30T12:10:30;98304.03;;;1.82;100.00
20156;BME280;10238;49.556;10.956;2023-01-30T12:13:24;98282.88;;;1.85;100.00
20156;BME280;10238;49.556;10.956;2023-01-30T12:16:22;98301.72;;;1.90;100.00
20156;BME280;10238;49.556;10.956;2023-01-30T12:19:24;98299.00;;;1.92;100.00
20156;BME280;10238;49.556;10.956;2023-01-30T12:22:32;98305.00;;;1.94;100.00
20156;BME280;10238;49.556;10.956;2023-01-30T12:25:26;98297.13;;;1.94;100.00
20156;BME280;10238;49.556;10.956;2023-01-30T12:28:24;98299.66;;;1.95;100.00
20156;BME280;10238;49.556;10.956;2023-01-30T12:31:24;98301.31;;;1.96;100.00
20156;BME280;10238;49.556;10.956;2023-01-30T12:34:13;98315.38;;;1.95;100.00
20156;BME280;10238;49.556;10.956;2023-01-30T12:37:27;98298.50;;;1.99;100.00
20156;BME280;10238;49.556;10.956;2023-01-30T12:40:35;98308.13;;;1.99;100.00
20156;BME280;10238;49.556;10.956;2023-01-30T12:47:27;98289.06;;;2.09;100.00
20156;BME280;10238;49.556;10.956;2023-01-30T12:50:30;98286.03;;;2.15;100.00
20156;BME280;10238;49.556;10.956;2023-01-30T12:53:44;98293.56;;;2.20;100.00
20156;BME280;10238;49.556;10.956;2023-01-30T12:57:13;98310.56;;;2.27;100.00
20156;BME280;10238;49.556;10.956;2023-01-30T13:00:29;98312.03;;;2.31;100.00
20156;BME280;10238;49.556;10.956;2023-01-30T13:03:28;98300.31;;;2.37;100.00
20156;BME280;10238;49.556;10.956;2023-01-30T13:06:35;98289.38;;;2.43;100.00
20156;BME280;10238;49.556;10.956;2023-01-30T13:09:49;98269.75;;;2.48;100.00
20156;BME280;10238;49.556;10.956;2023-01-30T13:12:50;98276.13;;;2.57;100.00
20156;BME280;10238;49.556;10.956;2023-01-30T13:15:52;98280.84;;;2.64;100.00
20156;BME280;10238;49.556;10.956;2023-01-30T13:18:51;98284.94;;;2.68;100.00
20156;BME280;10238;49.556;10.956;2023-01-30T13:21:45;98284.59;;;2.73;100.00
20156;BME280;10238;49.556;10.956;2023-01-30T13:24:50;98278.19;;;2.77;100.00
20156;BME280;10238;49.556;10.956;2023-01-30T13:27:51;98288.69;;;2.77;100.00
20156;BME280;10238;49.556;10.956;2023-01-30T13:30:42;98287.53;;;2.81;100.00
20156;BME280;10238;49.556;10.956;2023-01-30T13:33:34;98283.22;;;2.80;100.00
20156;BME280;10238;49.556;10.956;2023-01-30T13:36:33;98293.72;;;2.80;100.00
20156;BME280;10238;49.556;10.956;2023-01-30T13:39:31;98294.69;;;2.79;100.00
20156;BME280;10238;49.556;10.956;2023-01-30T13:42:31;98301.50;;;2.81;100.00
20156;BME280;10238;49.556;10.956;2023-01-30T13:45:23;98296.88;;;2.85;100.00
20156;BME280;10238;49.556;10.956;2023-01-30T13:48:31;98307.38;;;2.85;100.00
20156;BME280;10238;49.556;10.956;2023-01-30T13:51:45;98296.88;;;2.85;100.00
20156;BME280;10238;49.556;10.956;2023-01-30T13:54:51;98279.44;;;2.84;100.00
20156;BME280;10238;49.556;10.956;2023-01-30T13:57:49;98286.59;;;2.82;100.00
20156;BME280;10238;49.556;10.956;2023-01-30T14:00:38;98281.56;;;2.79;100.00
20156;BME280;10238;49.556;10.956;2023-01-30T14:03:29;98269.19;;;2.81;100.00
20156;BME280;10238;49.556;10.956;2023-01-30T14:06:32;98279.88;;;2.78;100.00
20156;BME280;10238;49.556;10.956;2023-01-30T14:09:29;98282.41;;;2.79;100.00
20156;BME280;10238;49.556;10.956;2023-01-30T14:12:24;98283.22;;;2.80;100.00
20156;BME280;10238;49.556;10.956;2023-01-30T14:15:27;98279.69;;;2.81;100.00
20156;BME280;10238;49.556;10.956;2023-01-30T14:18:23;98283.00;;;2.83;100.00
20156;BME280;10238;49.556;10.956;2023-01-30T14:21:15;98297.38;;;2.90;100.00
20156;BME280;10238;49.556;10.956;2023-01-30T14:24:05;98298.63;;;2.97;100.00
20156;BME280;10238;49.556;10.956;2023-01-30T14:27:23;98307.97;;;3.01;100.00
20156;BME280;10238;49.556;10.956;2023-01-30T14:30:35;98316.53;;;3.03;100.00
20156;BME280;10238;49.556;10.956;2023-01-30T14:33:34;98320.66;;;3.07;100.00
20156;BME280;10238;49.556;10.956;2023-01-30T14:36:35;98327.56;;;3.08;100.00
20156;BME280;10238;49.556;10.956;2023-01-30T14:39:38;98324.94;;;3.08;100.00
20156;BME280;10238;49.556;10.956;2023-01-30T14:42:29;98331.16;;;3.07;100.00
20156;BME280;10238;49.556;10.956;2023-01-30T14:45:44;98332.81;;;3.08;100.00
20156;BME280;10238;49.556;10.956;2023-01-30T14:48:41;98345.22;;;3.06;100.00
20156;BME280;10238;49.556;10.956;2023-01-30T14:51:34;98334.72;;;3.06;100.00
20156;BME280;10238;49.556;10.956;2023-01-30T14:54:37;98326.84;;;3.06;100.00
20156;BME280;10238;49.556;10.956;2023-01-30T14:57:30;98329.66;;;3.03;100.00
20156;BME280;10238;49.556;10.956;2023-01-30T15:00:25;98331.59;;;3.01;100.00
20156;BME280;10238;49.556;10.956;2023-01-30T15:03:19;98325.38;;;3.02;100.00
20156;BME280;10238;49.556;10.956;2023-01-30T15:06:07;98322.97;;;2.99;100.00
20156;BME280;10238;49.556;10.956;2023-01-30T15:08:56;98326.56;;;2.98;100.00
20156;BME280;10238;49.556;10.956;2023-01-30T15:11:55;98328.44;;;2.96;100.00